Deva — A8OK3 — position and weather

sailwx.info

Track history (hours):
 
Tides and Currents Weather Stations Pressure Air Temp Water Temp Dewpoint Dewpoint Depression Visibility Wind Speed Wind Dir Waves Ship Positions

Deva

Last reported at 2014-Nov-01 02:33 UTC. Time now 2014-Nov-01 03:26 UTC.
Position N 53°36' E 008°31'.

Length 259 m; draft 10 m.

Type: Ship (hazmat cat A). MMSI: 636013644.

Date/timePositionNaut miles runAvg speedWind from/ knotsBaromVisibWave heightAir tempDewpointWater temp
2014-Nov-01 02:33N 53°36' E 008°31'0 0.0
2014-Nov-01 01:33N 53°36' E 008°31'0 0.0
2014-Nov-01 00:33N 53°36' E 008°31'0 0.0
2014-Oct-31 23:33N 53°36' E 008°31'0 0.0
2014-Oct-31 22:33N 53°36' E 008°31'0 0.0
2014-Oct-31 21:33N 53°36' E 008°31'0 0.0
2014-Oct-31 20:33N 53°36' E 008°31'0 0.0
2014-Oct-31 19:32N 53°36' E 008°31'0 0.0
2014-Oct-31 18:32N 53°36' E 008°31'0 0.0
2014-Oct-31 17:32N 53°36' E 008°31'0 0.1
2014-Oct-31 16:33N 53°36' E 008°31'10 9.7
2014-Oct-31 15:33N 53°42' E 008°19'1616.4
2014-Oct-31 14:33N 53°52' E 007°56'4 4.4
2014-Oct-31 13:32N 53°55' E 007°51'0 0.0
2014-Oct-31 12:32N 53°55' E 007°51'0 0.0
2014-Oct-31 11:32N 53°55' E 007°51'0 0.1
2014-Oct-31 10:32N 53°55' E 007°51'0 0.1
2014-Oct-31 09:29N 53°55' E 007°50'0 0.1
2014-Oct-31 08:29N 53°55' E 007°50'0 0.0
2014-Oct-31 07:32N 53°55' E 007°50'0 0.0
2014-Oct-31 06:32N 53°55' E 007°50'0 0.0
2014-Oct-31 05:20N 53°55' E 007°50'0 0.1
2014-Oct-31 04:23N 53°55' E 007°50'0 0.1
2014-Oct-31 03:32N 53°55' E 007°51'0 0.1
2014-Oct-31 02:32N 53°55' E 007°51'0 0.0
2014-Oct-31 01:23N 53°55' E 007°51'0 0.0
2014-Oct-31 00:32N 53°55' E 007°51'0 0.0
2014-Oct-30 23:32N 53°55' E 007°51'0 0.1
2014-Oct-30 22:32N 53°55' E 007°50'0 0.1
2014-Oct-30 21:26N 53°55' E 007°50'0 0.1
2014-Oct-30 20:32N 53°55' E 007°50'0 0.0
2014-Oct-30 19:32N 53°55' E 007°50'0 0.1
2014-Oct-30 18:33N 53°55' E 007°50'10 9.8
2014-Oct-30 17:32N 53°55' E 007°34'1311.7
2014-Oct-30 16:26N 53°52' E 007°12'1212.1
2014-Oct-30 15:28N 53°49' E 006°53'2512.7
2014-Oct-30 13:32N 53°43' E 006°12'1313.4
2014-Oct-30 12:33N 53°39' E 005°51'1313.4
2014-Oct-30 11:33N 53°34' E 005°30'1413.6
2014-Oct-30 10:33N 53°30' E 005°09'1413.7
2014-Oct-30 09:33N 53°25' E 004°47'1614.4
2014-Oct-30 08:26N 53°12' E 004°32'1414.6
2014-Oct-30 07:27N 52°59' E 004°21'1314.2
2014-Oct-30 06:34N 52°48' E 004°11'1413.9
2014-Oct-30 05:34N 52°37' E 003°58'1413.5
2014-Oct-30 04:34N 52°23' E 003°53'1312.9
2014-Oct-30 03:34N 52°11' E 003°54'9 9.2
2014-Oct-30 02:34N 52°02' E 003°57'1312.6
2014-Oct-30 01:33N 51°55' E 004°15'7 7.0
2014-Oct-30 00:31N 51°54' E 004°26'0 0.1
2014-Oct-29 23:31N 51°54' E 004°26'0 0.0
2014-Oct-29 22:28N 51°54' E 004°26'0 0.0
2014-Oct-29 21:31N 51°54' E 004°26'0 0.0
2014-Oct-29 20:31N 51°54' E 004°26'0 0.0
2014-Oct-29 19:31N 51°54' E 004°26'0 0.0
2014-Oct-29 18:31N 51°54' E 004°26'0 0.0
2014-Oct-29 17:34N 51°54' E 004°26'0 0.0
2014-Oct-29 16:33N 51°54' E 004°26'0 0.0
2014-Oct-29 15:33N 51°54' E 004°26'0 0.0
2014-Oct-29 14:33N 51°54' E 004°26'0 0.0
2014-Oct-29 13:34N 51°54' E 004°26'0 0.0
2014-Oct-29 12:33N 51°54' E 004°26'0 0.0
2014-Oct-29 11:33N 51°54' E 004°26'0 0.0
2014-Oct-29 10:33N 51°54' E 004°26'0 0.0
2014-Oct-29 09:33N 51°54' E 004°26'0 0.0
2014-Oct-29 08:33N 51°54' E 004°26'0 0.0
2014-Oct-29 07:33N 51°54' E 004°26'0 0.0
2014-Oct-29 06:33N 51°54' E 004°26'0 0.0
2014-Oct-29 05:33N 51°54' E 004°26'0 0.0
2014-Oct-29 04:33N 51°54' E 004°26'1 0.9
2014-Oct-29 03:33N 51°54' E 004°25'7 7.1
2014-Oct-29 02:33N 51°56' E 004°13'9 9.0
2014-Oct-29 01:33N 51°60' E 004°01'1413.5
2014-Oct-29 00:33N 51°58' E 003°39'4016.8
2014-Oct-28 22:09N 51°52' E 002°34'1016.8
2014-Oct-28 21:32N 51°52' E 002°17'1313.6
2014-Oct-28 20:33N 51°49' E 001°56'1212.0
2014-Oct-28 19:33N 51°52' E 001°37'1211.5
2014-Oct-28 18:33N 51°55' E 001°20'2 1.5
2014-Oct-28 17:32N 51°57' E 001°19'0 0.0
2014-Oct-28 16:32N 51°57' E 001°19'0 0.0
2014-Oct-28 15:32N 51°57' E 001°19'0 0.0
2014-Oct-28 14:32N 51°57' E 001°19'0 0.0
2014-Oct-28 13:32N 51°57' E 001°19'0 0.0
2014-Oct-28 12:32N 51°57' E 001°19'0 0.0
2014-Oct-28 11:32N 51°57' E 001°19'0 0.0
2014-Oct-28 10:32N 51°57' E 001°19'0 0.0
2014-Oct-28 09:32N 51°57' E 001°19'0 0.0
2014-Oct-28 08:31N 51°57' E 001°19'0 0.0
2014-Oct-28 07:31N 51°57' E 001°19'0 0.0
2014-Oct-28 06:31N 51°57' E 001°19'0 0.0
2014-Oct-28 05:31N 51°57' E 001°19'0 0.0
2014-Oct-28 04:31N 51°57' E 001°19'0 0.0
2014-Oct-28 03:31N 51°57' E 001°19'0 0.0
2014-Oct-28 02:31N 51°57' E 001°19'0 0.0
2014-Oct-28 01:31N 51°57' E 001°19'0 0.0
2014-Oct-28 00:31N 51°57' E 001°19'0 0.0
2014-Oct-27 23:31N 51°57' E 001°19'0 0.0
2014-Oct-27 22:31N 51°57' E 001°19'0 0.0
2014-Oct-27 21:31N 51°57' E 001°19'0 0.0
2014-Oct-27 20:31N 51°57' E 001°19'0 0.0
2014-Oct-27 19:31N 51°57' E 001°19'0 0.0
2014-Oct-27 18:34N 51°57' E 001°19'8 7.9
2014-Oct-27 17:34N 51°56' E 001°32'9 9.2
2014-Oct-27 16:33N 51°51' E 001°44'10 9.7
2014-Oct-27 15:33N 51°42' E 001°49'1413.6
2014-Oct-27 14:33N 51°29' E 001°55'1111.4
2014-Oct-27 13:33N 51°18' E 001°55'1514.7
2014-Oct-27 12:33N 51°06' E 001°40'1414.4
2014-Oct-27 11:33N 50°55' E 001°25'1413.9
2014-Oct-27 10:33N 50°42' E 001°19'1414.1
2014-Oct-27 09:34N 50°33' E 001°02'1414.1
2014-Oct-27 08:34N 50°28' E 000°42'1514.3
2014-Oct-27 07:32N 50°23' E 000°20'7814.7
2014-Oct-27 02:13N 50°03' W 001°38'1014.0
2014-Oct-27 01:29N 50°00' W 001°54'1414.0
2014-Oct-27 00:28N 49°56' W 002°15'1314.1
2014-Oct-26 23:34N 49°53' W 002°34'1414.0
2014-Oct-26 22:34N 49°49' W 002°55'1414.2
2014-Oct-26 21:33N 49°42' W 003°14'42413.9
2014-Oct-25 15:07N 43°57' W 009°15'35214.3
2014-Oct-24 14:33N 38°06' W 009°41'1717.0
2014-Oct-24 13:33N 37°49' W 009°37'1717.3
2014-Oct-24 12:33N 37°32' W 009°31'1717.3
2014-Oct-24 11:34N 37°15' W 009°26'1717.1
2014-Oct-24 10:33N 36°59' W 009°21'1716.7
2014-Oct-24 09:33N 36°45' W 009°10'1717.1
2014-Oct-24 08:34N 36°39' W 008°50'1817.6
2014-Oct-24 07:33N 36°34' W 008°29'1717.2
2014-Oct-24 06:34N 36°29' W 008°09'1717.2
2014-Oct-24 05:34N 36°23' W 007°48'1717.2
2014-Oct-24 04:33N 36°18' W 007°28'1817.4
2014-Oct-24 03:32N 36°13' W 007°07'2517.3
2014-Oct-24 02:06N 36°04' W 006°38'917.1
2014-Oct-24 01:33N 36°01' W 006°27'3917.3
2014-Oct-23 23:19N 35°57' W 005°39'1317.5
2014-Oct-23 22:34N 36°01' W 005°24'68517.1
2014-Oct-22 06:32N 38°36' E 008°35'2217.1
2014-Oct-22 05:15N 38°44' E 009°01'1217.0
2014-Oct-22 04:33N 38°49' E 009°14'  
Track history (hours):
 
Tides and Currents Weather Stations Pressure Air Temp Water Temp Dewpoint Dewpoint Depression Visibility Wind Speed Wind Dir Waves Ship Positions

Deva

Last reported at 2014-Nov-01 02:33 UTC. Time now 2014-Nov-01 03:26 UTC.
Position N 53°36' E 008°31'.

Length 259 m; draft 10 m.

Type: Ship (hazmat cat A). MMSI: 636013644.

Date/timePositionNaut miles runAvg speedWind from/ knotsBaromVisibWave heightAir tempDewpointWater temp
2014-Nov-01 02:33N 53°36' E 008°31'0 0.0
2014-Nov-01 01:33N 53°36' E 008°31'0 0.0
2014-Nov-01 00:33N 53°36' E 008°31'0 0.0
2014-Oct-31 23:33N 53°36' E 008°31'0 0.0
2014-Oct-31 22:33N 53°36' E 008°31'0 0.0
2014-Oct-31 21:33N 53°36' E 008°31'0 0.0
2014-Oct-31 20:33N 53°36' E 008°31'0 0.0
2014-Oct-31 19:32N 53°36' E 008°31'0 0.0
2014-Oct-31 18:32N 53°36' E 008°31'0 0.0
2014-Oct-31 17:32N 53°36' E 008°31'0 0.1
2014-Oct-31 16:33N 53°36' E 008°31'10 9.7
2014-Oct-31 15:33N 53°42' E 008°19'1616.4
2014-Oct-31 14:33N 53°52' E 007°56'4 4.4
2014-Oct-31 13:32N 53°55' E 007°51'0 0.0
2014-Oct-31 12:32N 53°55' E 007°51'0 0.0
2014-Oct-31 11:32N 53°55' E 007°51'0 0.1
2014-Oct-31 10:32N 53°55' E 007°51'0 0.1
2014-Oct-31 09:29N 53°55' E 007°50'0 0.1
2014-Oct-31 08:29N 53°55' E 007°50'0 0.0
2014-Oct-31 07:32N 53°55' E 007°50'0 0.0
2014-Oct-31 06:32N 53°55' E 007°50'0 0.0
2014-Oct-31 05:20N 53°55' E 007°50'0 0.1
2014-Oct-31 04:23N 53°55' E 007°50'0 0.1
2014-Oct-31 03:32N 53°55' E 007°51'0 0.1
2014-Oct-31 02:32N 53°55' E 007°51'0 0.0
2014-Oct-31 01:23N 53°55' E 007°51'0 0.0
2014-Oct-31 00:32N 53°55' E 007°51'0 0.0
2014-Oct-30 23:32N 53°55' E 007°51'0 0.1
2014-Oct-30 22:32N 53°55' E 007°50'0 0.1
2014-Oct-30 21:26N 53°55' E 007°50'0 0.1
2014-Oct-30 20:32N 53°55' E 007°50'0 0.0
2014-Oct-30 19:32N 53°55' E 007°50'0 0.1
2014-Oct-30 18:33N 53°55' E 007°50'10 9.8
2014-Oct-30 17:32N 53°55' E 007°34'1311.7
2014-Oct-30 16:26N 53°52' E 007°12'1212.1
2014-Oct-30 15:28N 53°49' E 006°53'2512.7
2014-Oct-30 13:32N 53°43' E 006°12'1313.4
2014-Oct-30 12:33N 53°39' E 005°51'1313.4
2014-Oct-30 11:33N 53°34' E 005°30'1413.6
2014-Oct-30 10:33N 53°30' E 005°09'1413.7
2014-Oct-30 09:33N 53°25' E 004°47'1614.4
2014-Oct-30 08:26N 53°12' E 004°32'1414.6
2014-Oct-30 07:27N 52°59' E 004°21'1314.2
2014-Oct-30 06:34N 52°48' E 004°11'1413.9
2014-Oct-30 05:34N 52°37' E 003°58'1413.5
2014-Oct-30 04:34N 52°23' E 003°53'1312.9
2014-Oct-30 03:34N 52°11' E 003°54'9 9.2
2014-Oct-30 02:34N 52°02' E 003°57'1312.6
2014-Oct-30 01:33N 51°55' E 004°15'7 7.0
2014-Oct-30 00:31N 51°54' E 004°26'0 0.1
2014-Oct-29 23:31N 51°54' E 004°26'0 0.0
2014-Oct-29 22:28N 51°54' E 004°26'0 0.0
2014-Oct-29 21:31N 51°54' E 004°26'0 0.0
2014-Oct-29 20:31N 51°54' E 004°26'0 0.0
2014-Oct-29 19:31N 51°54' E 004°26'0 0.0
2014-Oct-29 18:31N 51°54' E 004°26'0 0.0
2014-Oct-29 17:34N 51°54' E 004°26'0 0.0
2014-Oct-29 16:33N 51°54' E 004°26'0 0.0
2014-Oct-29 15:33N 51°54' E 004°26'0 0.0
2014-Oct-29 14:33N 51°54' E 004°26'0 0.0
2014-Oct-29 13:34N 51°54' E 004°26'0 0.0
2014-Oct-29 12:33N 51°54' E 004°26'0 0.0
2014-Oct-29 11:33N 51°54' E 004°26'0 0.0
2014-Oct-29 10:33N 51°54' E 004°26'0 0.0
2014-Oct-29 09:33N 51°54' E 004°26'0 0.0
2014-Oct-29 08:33N 51°54' E 004°26'0 0.0
2014-Oct-29 07:33N 51°54' E 004°26'0 0.0
2014-Oct-29 06:33N 51°54' E 004°26'0 0.0
2014-Oct-29 05:33N 51°54' E 004°26'0 0.0
2014-Oct-29 04:33N 51°54' E 004°26'1 0.9
2014-Oct-29 03:33N 51°54' E 004°25'7 7.1
2014-Oct-29 02:33N 51°56' E 004°13'9 9.0
2014-Oct-29 01:33N 51°60' E 004°01'1413.5
2014-Oct-29 00:33N 51°58' E 003°39'4016.8
2014-Oct-28 22:09N 51°52' E 002°34'1016.8
2014-Oct-28 21:32N 51°52' E 002°17'1313.6
2014-Oct-28 20:33N 51°49' E 001°56'1212.0
2014-Oct-28 19:33N 51°52' E 001°37'1211.5
2014-Oct-28 18:33N 51°55' E 001°20'2 1.5
2014-Oct-28 17:32N 51°57' E 001°19'0 0.0
2014-Oct-28 16:32N 51°57' E 001°19'0 0.0
2014-Oct-28 15:32N 51°57' E 001°19'0 0.0
2014-Oct-28 14:32N 51°57' E 001°19'0 0.0
2014-Oct-28 13:32N 51°57' E 001°19'0 0.0
2014-Oct-28 12:32N 51°57' E 001°19'0 0.0
2014-Oct-28 11:32N 51°57' E 001°19'0 0.0
2014-Oct-28 10:32N 51°57' E 001°19'0 0.0
2014-Oct-28 09:32N 51°57' E 001°19'0 0.0
2014-Oct-28 08:31N 51°57' E 001°19'0 0.0
2014-Oct-28 07:31N 51°57' E 001°19'0 0.0
2014-Oct-28 06:31N 51°57' E 001°19'0 0.0
2014-Oct-28 05:31N 51°57' E 001°19'0 0.0
2014-Oct-28 04:31N 51°57' E 001°19'0 0.0
2014-Oct-28 03:31N 51°57' E 001°19'0 0.0
2014-Oct-28 02:31N 51°57' E 001°19'0 0.0
2014-Oct-28 01:31N 51°57' E 001°19'0 0.0
2014-Oct-28 00:31N 51°57' E 001°19'0 0.0
2014-Oct-27 23:31N 51°57' E 001°19'0 0.0
2014-Oct-27 22:31N 51°57' E 001°19'0 0.0
2014-Oct-27 21:31N 51°57' E 001°19'0 0.0
2014-Oct-27 20:31N 51°57' E 001°19'0 0.0
2014-Oct-27 19:31N 51°57' E 001°19'0 0.0
2014-Oct-27 18:34N 51°57' E 001°19'8 7.9
2014-Oct-27 17:34N 51°56' E 001°32'9 9.2
2014-Oct-27 16:33N 51°51' E 001°44'10 9.7
2014-Oct-27 15:33N 51°42' E 001°49'1413.6
2014-Oct-27 14:33N 51°29' E 001°55'1111.4
2014-Oct-27 13:33N 51°18' E 001°55'1514.7
2014-Oct-27 12:33N 51°06' E 001°40'1414.4
2014-Oct-27 11:33N 50°55' E 001°25'1413.9
2014-Oct-27 10:33N 50°42' E 001°19'1414.1
2014-Oct-27 09:34N 50°33' E 001°02'1414.1
2014-Oct-27 08:34N 50°28' E 000°42'1514.3
2014-Oct-27 07:32N 50°23' E 000°20'7814.7
2014-Oct-27 02:13N 50°03' W 001°38'1014.0
2014-Oct-27 01:29N 50°00' W 001°54'1414.0
2014-Oct-27 00:28N 49°56' W 002°15'1314.1
2014-Oct-26 23:34N 49°53' W 002°34'1414.0
2014-Oct-26 22:34N 49°49' W 002°55'1414.2
2014-Oct-26 21:33N 49°42' W 003°14'42413.9
2014-Oct-25 15:07N 43°57' W 009°15'35214.3
2014-Oct-24 14:33N 38°06' W 009°41'1717.0
2014-Oct-24 13:33N 37°49' W 009°37'1717.3
2014-Oct-24 12:33N 37°32' W 009°31'1717.3
2014-Oct-24 11:34N 37°15' W 009°26'1717.1
2014-Oct-24 10:33N 36°59' W 009°21'1716.7
2014-Oct-24 09:33N 36°45' W 009°10'1717.1
2014-Oct-24 08:34N 36°39' W 008°50'1817.6
2014-Oct-24 07:33N 36°34' W 008°29'1717.2
2014-Oct-24 06:34N 36°29' W 008°09'1717.2
2014-Oct-24 05:34N 36°23' W 007°48'1717.2
2014-Oct-24 04:33N 36°18' W 007°28'1817.4
2014-Oct-24 03:32N 36°13' W 007°07'2517.3
2014-Oct-24 02:06N 36°04' W 006°38'917.1
2014-Oct-24 01:33N 36°01' W 006°27'3917.3
2014-Oct-23 23:19N 35°57' W 005°39'1317.5
2014-Oct-23 22:34N 36°01' W 005°24'68517.1
2014-Oct-22 06:32N 38°36' E 008°35'2217.1
2014-Oct-22 05:15N 38°44' E 009°01'1217.0
2014-Oct-22 04:33N 38°49' E 009°14'  

Dump ship's entire track history